sensor_id;sensor_type;location;lat;lon;timestamp;pressure;altitude;pressure_sealevel;temperature;humidity
62708;BME280;48769;51.624;5.886;2023-03-20T00:01:27;101815.31;;;9.66;100.00
62708;BME280;48769;51.624;5.886;2023-03-20T00:03:54;101814.66;;;9.59;100.00
62708;BME280;48769;51.624;5.886;2023-03-20T00:06:25;101810.19;;;9.62;100.00
62708;BME280;48769;51.624;5.886;2023-03-20T00:08:52;101812.03;;;9.59;100.00
62708;BME280;48769;51.624;5.886;2023-03-20T00:13:57;101807.41;;;9.66;100.00
62708;BME280;48769;51.624;5.886;2023-03-20T00:16:24;101804.69;;;9.68;100.00
62708;BME280;48769;51.624;5.886;2023-03-20T00:18:51;101799.63;;;9.62;100.00
62708;BME280;48769;51.624;5.886;2023-03-20T00:21:18;101796.09;;;9.63;100.00
62708;BME280;48769;51.624;5.886;2023-03-20T00:23:44;101792.78;;;9.56;100.00
62708;BME280;48769;51.624;5.886;2023-03-20T00:26:14;101796.19;;;9.59;100.00
62708;BME280;48769;51.624;5.886;2023-03-20T00:28:46;101803.28;;;9.57;100.00
62708;BME280;48769;51.624;5.886;2023-03-20T00:31:25;101793.59;;;9.58;100.00
62708;BME280;48769;51.624;5.886;2023-03-20T00:33:56;101800.63;;;9.57;100.00
62708;BME280;48769;51.624;5.886;2023-03-20T00:36:22;101798.72;;;9.63;100.00
62708;BME280;48769;51.624;5.886;2023-03-20T00:38:48;101804.09;;;9.59;100.00
62708;BME280;48769;51.624;5.886;2023-03-20T00:41:29;101793.59;;;9.58;100.00
62708;BME280;48769;51.624;5.886;2023-03-20T00:43:59;101792.72;;;9.57;100.00
62708;BME280;48769;51.624;5.886;2023-03-20T00:46:25;101782.19;;;9.57;100.00
62708;BME280;48769;51.624;5.886;2023-03-20T00:48:52;101782.28;;;9.54;100.00
62708;BME280;48769;51.624;5.886;2023-03-20T00:51:18;101788.81;;;9.43;100.00
62708;BME280;48769;51.624;5.886;2023-03-20T00:53:46;101784.22;;;9.49;100.00
62708;BME280;48769;51.624;5.886;2023-03-20T00:56:29;101784.97;;;9.53;100.00
62708;BME280;48769;51.624;5.886;2023-03-20T00:58:55;101778.84;;;9.52;100.00
62708;BME280;48769;51.624;5.886;2023-03-20T01:01:22;101779.72;;;9.51;100.00
62708;BME280;48769;51.624;5.886;2023-03-20T01:03:47;101776.19;;;9.52;100.00
62708;BME280;48769;51.624;5.886;2023-03-20T01:06:13;101778.19;;;9.46;100.00
62708;BME280;48769;51.624;5.886;2023-03-20T01:08:38;101769.53;;;9.41;100.00
62708;BME280;48769;51.624;5.886;2023-03-20T01:11:04;101775.66;;;9.41;100.00
62708;BME280;48769;51.624;5.886;2023-03-20T01:13:30;101767.25;;;9.30;100.00
62708;BME280;48769;51.624;5.886;2023-03-20T01:15:57;101770.78;;;9.29;100.00
62708;BME280;48769;51.624;5.886;2023-03-20T01:18:24;101769.88;;;9.30;100.00
62708;BME280;48769;51.624;5.886;2023-03-20T01:20:50;101775.09;;;9.31;100.00
62708;BME280;48769;51.624;5.886;2023-03-20T01:23:20;101792.53;;;9.35;100.00
62708;BME280;48769;51.624;5.886;2023-03-20T01:25:48;101803.97;;;9.36;100.00
62708;BME280;48769;51.624;5.886;2023-03-20T01:28:20;101805.69;;;9.37;100.00
62708;BME280;48769;51.624;5.886;2023-03-20T01:30:46;101816.06;;;9.43;100.00
62708;BME280;48769;51.624;5.886;2023-03-20T01:35:38;101806.38;;;9.42;100.00
62708;BME280;48769;51.624;5.886;2023-03-20T01:38:14;101807.41;;;9.38;100.00
62708;BME280;48769;51.624;5.886;2023-03-20T01:43:21;101803.34;;;9.28;100.00
62708;BME280;48769;51.624;5.886;2023-03-20T01:45:57;101806.13;;;9.23;100.00
62708;BME280;48769;51.624;5.886;2023-03-20T01:48:31;101823.91;;;9.17;100.00
62708;BME280;48769;51.624;5.886;2023-03-20T01:51:00;101825.53;;;9.21;100.00
62708;BME280;48769;51.624;5.886;2023-03-20T01:53:27;101813.97;;;9.25;100.00
62708;BME280;48769;51.624;5.886;2023-03-20T01:55:55;101815.59;;;9.29;100.00
62708;BME280;48769;51.624;5.886;2023-03-20T01:58:29;101798.97;;;9.27;100.00
62708;BME280;48769;51.624;5.886;2023-03-20T02:00:57;101806.06;;;9.25;100.00
62708;BME280;48769;51.624;5.886;2023-03-20T02:03:23;101821.03;;;9.24;100.00
62708;BME280;48769;51.624;5.886;2023-03-20T02:05:50;101833.38;;;9.22;100.00
62708;BME280;48769;51.624;5.886;2023-03-20T02:08:23;101811.34;;;9.25;100.00
62708;BME280;48769;51.624;5.886;2023-03-20T02:10:56;101795.00;;;9.13;100.00
62708;BME280;48769;51.624;5.886;2023-03-20T02:13:23;101803.09;;;9.07;100.00
62708;BME280;48769;51.624;5.886;2023-03-20T02:16:04;101790.16;;;8.98;100.00
62708;BME280;48769;51.624;5.886;2023-03-20T02:18:32;101786.09;;;8.88;100.00
62708;BME280;48769;51.624;5.886;2023-03-20T02:26:47;101789.38;;;8.65;100.00
62708;BME280;48769;51.624;5.886;2023-03-20T02:32:27;101782.78;;;8.50;100.00
62708;BME280;48769;51.624;5.886;2023-03-20T02:37:59;101799.72;;;8.40;100.00
62708;BME280;48769;51.624;5.886;2023-03-20T02:40:43;101798.09;;;8.34;100.00
62708;BME280;48769;51.624;5.886;2023-03-20T02:43:22;101812.25;;;8.30;100.00
62708;BME280;48769;51.624;5.886;2023-03-20T02:45:52;101821.22;;;8.22;100.00
62708;BME280;48769;51.624;5.886;2023-03-20T02:51:13;101811.53;;;8.24;100.00
62708;BME280;48769;51.624;5.886;2023-03-20T03:01:25;101807.34;;;8.16;100.00
62708;BME280;48769;51.624;5.886;2023-03-20T03:03:59;101801.31;;;8.13;100.00
62708;BME280;48769;51.624;5.886;2023-03-20T03:06:32;101788.88;;;8.18;100.00
62708;BME280;48769;51.624;5.886;2023-03-20T03:09:02;101788.00;;;8.17;100.00
62708;BME280;48769;51.624;5.886;2023-03-20T03:11:35;101786.28;;;8.16;100.00
62708;BME280;48769;51.624;5.886;2023-03-20T03:14:03;101788.09;;;8.14;100.00
62708;BME280;48769;51.624;5.886;2023-03-20T03:16:35;101792.41;;;8.17;100.00
62708;BME280;48769;51.624;5.886;2023-03-20T03:19:07;101790.78;;;8.11;100.00
62708;BME280;48769;51.624;5.886;2023-03-20T03:21:35;101794.50;;;8.04;100.00
62708;BME280;48769;51.624;5.886;2023-03-20T03:24:02;101788.47;;;7.99;100.00
62708;BME280;48769;51.624;5.886;2023-03-20T03:26:32;101789.38;;;7.98;100.00
62708;BME280;48769;51.624;5.886;2023-03-20T03:29:01;101781.66;;;7.92;100.00
62708;BME280;48769;51.624;5.886;2023-03-20T03:31:29;101776.31;;;7.95;100.00
62708;BME280;48769;51.624;5.886;2023-03-20T03:33:57;101768.50;;;7.92;100.00
62708;BME280;48769;51.624;5.886;2023-03-20T03:36:47;101767.75;;;7.87;100.00
62708;BME280;48769;51.624;5.886;2023-03-20T03:39:42;101757.41;;;7.81;100.00
62708;BME280;48769;51.624;5.886;2023-03-20T03:42:55;101755.50;;;7.86;100.00
62708;BME280;48769;51.624;5.886;2023-03-20T03:45:06;101732.59;;;7.89;100.00
62708;BME280;48769;51.624;5.886;2023-03-20T03:47:45;101735.22;;;7.91;100.00
62708;BME280;48769;51.624;5.886;2023-03-20T03:50:24;101738.84;;;7.85;100.00
62708;BME280;48769;51.624;5.886;2023-03-20T03:52:54;101744.91;;;7.89;100.00
62708;BME280;48769;51.624;5.886;2023-03-20T03:55:25;101751.06;;;7.88;100.00
62708;BME280;48769;51.624;5.886;2023-03-20T03:57:57;101742.31;;;7.87;100.00
62708;BME280;48769;51.624;5.886;2023-03-20T04:00:25;101746.94;;;7.78;100.00
62708;BME280;48769;51.624;5.886;2023-03-20T04:02:54;101748.81;;;7.72;100.00
62708;BME280;48769;51.624;5.886;2023-03-20T04:05:20;101733.03;;;7.72;100.00
62708;BME280;48769;51.624;5.886;2023-03-20T04:07:50;101743.47;;;7.76;100.00
62708;BME280;48769;51.624;5.886;2023-03-20T04:10:16;101740.19;;;7.67;100.00
62708;BME280;48769;51.624;5.886;2023-03-20T04:12:43;101743.63;;;7.69;100.00
62708;BME280;48769;51.624;5.886;2023-03-20T04:15:11;101747.19;;;7.68;100.00
62708;BME280;48769;51.624;5.886;2023-03-20T04:17:36;101742.78;;;7.69;100.00
62708;BME280;48769;51.624;5.886;2023-03-20T04:20:03;101744.69;;;7.62;100.00
62708;BME280;48769;51.624;5.886;2023-03-20T04:22:28;101742.03;;;7.64;100.00
62708;BME280;48769;51.624;5.886;2023-03-20T04:24:54;101744.69;;;7.64;100.00
62708;BME280;48769;51.624;5.886;2023-03-20T04:27:22;101739.50;;;7.61;100.00
62708;BME280;48769;51.624;5.886;2023-03-20T04:29:48;101739.41;;;7.64;100.00
62708;BME280;48769;51.624;5.886;2023-03-20T04:32:13;101743.06;;;7.58;100.00
62708;BME280;48769;51.624;5.886;2023-03-20T04:34:39;101742.34;;;7.52;100.00
62708;BME280;48769;51.624;5.886;2023-03-20T04:37:04;101737.09;;;7.50;100.00
62708;BME280;48769;51.624;5.886;2023-03-20T04:39:32;101724.78;;;7.52;100.00
62708;BME280;48769;51.624;5.886;2023-03-20T04:41:57;101721.47;;;7.44;100.00
62708;BME280;48769;51.624;5.886;2023-03-20T04:44:23;101721.41;;;7.47;100.00
62708;BME280;48769;51.624;5.886;2023-03-20T04:46:48;101720.53;;;7.46;100.00
62708;BME280;48769;51.624;5.886;2023-03-20T04:49:13;101728.47;;;7.45;100.00
62708;BME280;48769;51.624;5.886;2023-03-20T04:51:38;101729.28;;;7.47;100.00
62708;BME280;48769;51.624;5.886;2023-03-20T04:54:04;101732.00;;;7.44;100.00
62708;BME280;48769;51.624;5.886;2023-03-20T04:56:30;101718.97;;;7.39;100.00
62708;BME280;48769;51.624;5.886;2023-03-20T04:58:55;101713.00;;;7.33;100.00
62708;BME280;48769;51.624;5.886;2023-03-20T05:01:20;101707.75;;;7.33;100.00
62708;BME280;48769;51.624;5.886;2023-03-20T05:03:47;101709.38;;;7.37;100.00
62708;BME280;48769;51.624;5.886;2023-03-20T05:06:13;101708.78;;;7.25;100.00
62708;BME280;48769;51.624;5.886;2023-03-20T05:08:38;101717.50;;;7.28;100.00
62708;BME280;48769;51.624;5.886;2023-03-20T05:11:04;101721.09;;;7.23;100.00
62708;BME280;48769;51.624;5.886;2023-03-20T05:13:29;101718.25;;;7.33;100.00
62708;BME280;48769;51.624;5.886;2023-03-20T05:15:55;101720.84;;;7.34;100.00
62708;BME280;48769;51.624;5.886;2023-03-20T05:18:20;101713.16;;;7.26;100.00
62708;BME280;48769;51.624;5.886;2023-03-20T05:20:48;101715.66;;;7.31;100.00
62708;BME280;48769;51.624;5.886;2023-03-20T05:23:14;101718.31;;;7.30;100.00
62708;BME280;48769;51.624;5.886;2023-03-20T05:25:39;101717.41;;;7.31;100.00
62708;BME280;48769;51.624;5.886;2023-03-20T05:28:05;101725.22;;;7.35;100.00
62708;BME280;48769;51.624;5.886;2023-03-20T05:30:31;101714.56;;;7.40;100.00
62708;BME280;48769;51.624;5.886;2023-03-20T05:32:56;101722.47;;;7.40;100.00
62708;BME280;48769;51.624;5.886;2023-03-20T05:35:21;101717.25;;;7.38;100.00
62708;BME280;48769;51.624;5.886;2023-03-20T05:37:47;101719.81;;;7.41;100.00
62708;BME280;48769;51.624;5.886;2023-03-20T05:40:14;101723.38;;;7.39;100.00
62708;BME280;48769;51.624;5.886;2023-03-20T05:42:39;101709.47;;;7.34;100.00
62708;BME280;48769;51.624;5.886;2023-03-20T05:45:05;101715.56;;;7.34;100.00
62708;BME280;48769;51.624;5.886;2023-03-20T05:47:31;101718.13;;;7.37;100.00
62708;BME280;48769;51.624;5.886;2023-03-20T05:49:56;101717.25;;;7.38;100.00
62708;BME280;48769;51.624;5.886;2023-03-20T05:52:22;101716.41;;;7.38;100.00
62708;BME280;48769;51.624;5.886;2023-03-20T05:54:47;101718.91;;;7.41;100.00
62708;BME280;48769;51.624;5.886;2023-03-20T05:57:12;101725.94;;;7.40;100.00
62708;BME280;48769;51.624;5.886;2023-03-20T05:59:38;101730.41;;;7.37;100.00
62708;BME280;48769;51.624;5.886;2023-03-20T06:02:03;101741.06;;;7.31;100.00
62708;BME280;48769;51.624;5.886;2023-03-20T06:04:28;101741.00;;;7.34;100.00
62708;BME280;48769;51.624;5.886;2023-03-20T06:06:54;101746.19;;;7.37;100.00
62708;BME280;48769;51.624;5.886;2023-03-20T06:09:20;101748.66;;;7.43;100.00
62708;BME280;48769;51.624;5.886;2023-03-20T06:11:45;101747.84;;;7.41;100.00
62708;BME280;48769;51.624;5.886;2023-03-20T06:14:10;101747.84;;;7.41;100.00
62708;BME280;48769;51.624;5.886;2023-03-20T06:16:39;101733.81;;;7.42;100.00
62708;BME280;48769;51.624;5.886;2023-03-20T06:19:04;101743.47;;;7.41;100.00
62708;BME280;48769;51.624;5.886;2023-03-20T06:21:30;101740.78;;;7.43;100.00
62708;BME280;48769;51.624;5.886;2023-03-20T06:23:56;101747.75;;;7.44;100.00
62708;BME280;48769;51.624;5.886;2023-03-20T06:26:22;101751.22;;;7.46;100.00
62708;BME280;48769;51.624;5.886;2023-03-20T06:28:47;101749.59;;;7.42;100.00
62708;BME280;48769;51.624;5.886;2023-03-20T06:31:13;101754.78;;;7.45;100.00
62708;BME280;48769;51.624;5.886;2023-03-20T06:33:38;101752.09;;;7.46;100.00
62708;BME280;48769;51.624;5.886;2023-03-20T06:36:04;101759.97;;;7.48;100.00
62708;BME280;48769;51.624;5.886;2023-03-20T06:38:29;101763.38;;;7.52;100.00
62708;BME280;48769;51.624;5.886;2023-03-20T06:40:55;101764.22;;;7.52;100.00
62708;BME280;48769;51.624;5.886;2023-03-20T06:43:20;101766.66;;;7.61;100.00
62708;BME280;48769;51.624;5.886;2023-03-20T06:45:46;101766.44;;;7.70;100.00
62708;BME280;48769;51.624;5.886;2023-03-20T06:48:12;101768.66;;;7.86;100.00
62708;BME280;48769;51.624;5.886;2023-03-20T06:50:37;101764.88;;;7.96;100.00
62708;BME280;48769;51.624;5.886;2023-03-20T06:53:03;101768.25;;;8.01;100.00
62708;BME280;48769;51.624;5.886;2023-03-20T06:55:28;101770.75;;;8.07;100.00
62708;BME280;48769;51.624;5.886;2023-03-20T06:57:53;101777.78;;;8.05;100.00
62708;BME280;48769;51.624;5.886;2023-03-20T07:00:19;101777.00;;;8.03;100.00
62708;BME280;48769;51.624;5.886;2023-03-20T07:02:46;101780.56;;;8.01;100.00
62708;BME280;48769;51.624;5.886;2023-03-20T07:05:12;101792.94;;;7.97;100.00
62708;BME280;48769;51.624;5.886;2023-03-20T07:07:38;101774.28;;;8.06;100.00
62708;BME280;48769;51.624;5.886;2023-03-20T07:10:03;101783.13;;;8.02;100.00
62708;BME280;48769;51.624;5.886;2023-03-20T07:12:29;101790.22;;;8.00;100.00
62708;BME280;48769;51.624;5.886;2023-03-20T07:14:54;101789.16;;;8.07;100.00
62708;BME280;48769;51.624;5.886;2023-03-20T07:17:20;101784.88;;;8.03;100.00
62708;BME280;48769;51.624;5.886;2023-03-20T07:19:46;101781.22;;;8.09;100.00
62708;BME280;48769;51.624;5.886;2023-03-20T07:22:27;101790.06;;;8.06;100.00
62708;BME280;48769;51.624;5.886;2023-03-20T07:24:53;101781.22;;;8.09;100.00
62708;BME280;48769;51.624;5.886;2023-03-20T07:27:18;101783.84;;;8.09;100.00
62708;BME280;48769;51.624;5.886;2023-03-20T07:29:44;101793.50;;;8.08;100.00
62708;BME280;48769;51.624;5.886;2023-03-20T07:32:09;101786.41;;;8.12;100.00
62708;BME280;48769;51.624;5.886;2023-03-20T07:34:35;101802.16;;;8.13;100.00
62708;BME280;48769;51.624;5.886;2023-03-20T07:37:01;101800.41;;;8.12;100.00
62708;BME280;48769;51.624;5.886;2023-03-20T07:39:26;101806.31;;;8.22;100.00
62708;BME280;48769;51.624;5.886;2023-03-20T07:41:52;101799.22;;;8.26;100.00
62708;BME280;48769;51.624;5.886;2023-03-20T07:44:17;101810.56;;;8.28;100.00
62708;BME280;48769;51.624;5.886;2023-03-20T07:46:44;101805.19;;;8.32;100.00
62708;BME280;48769;51.624;5.886;2023-03-20T07:49:15;101805.13;;;8.34;100.00
62708;BME280;48769;51.624;5.886;2023-03-20T07:51:43;101799.84;;;8.35;100.00
62708;BME280;48769;51.624;5.886;2023-03-20T07:54:09;101805.03;;;8.37;100.00
62708;BME280;48769;51.624;5.886;2023-03-20T07:56:34;101802.41;;;8.37;100.00
62708;BME280;48769;51.624;5.886;2023-03-20T07:58:59;101802.22;;;8.45;100.00
62708;BME280;48769;51.624;5.886;2023-03-20T08:01:25;101801.13;;;8.53;100.00
62708;BME280;48769;51.624;5.886;2023-03-20T08:03:50;101799.41;;;8.52;100.00
62708;BME280;48769;51.624;5.886;2023-03-20T08:06:16;101809.69;;;8.61;100.00
62708;BME280;48769;51.624;5.886;2023-03-20T08:08:41;101797.19;;;8.68;100.00
62708;BME280;48769;51.624;5.886;2023-03-20T08:11:07;101791.78;;;8.73;100.00
62708;BME280;48769;51.624;5.886;2023-03-20T08:13:32;101793.59;;;8.71;100.00
62708;BME280;48769;51.624;5.886;2023-03-20T08:15:58;101798.16;;;8.65;100.00
62708;BME280;48769;51.624;5.886;2023-03-20T08:18:23;101792.66;;;8.73;100.00
62708;BME280;48769;51.624;5.886;2023-03-20T08:20:48;101795.94;;;8.81;100.00
62708;BME280;48769;51.624;5.886;2023-03-20T08:23:15;101805.41;;;8.87;100.00
62708;BME280;48769;51.624;5.886;2023-03-20T08:25:41;101798.53;;;8.83;100.00
62708;BME280;48769;51.624;5.886;2023-03-20T08:28:06;101802.91;;;8.84;100.00
62708;BME280;48769;51.624;5.886;2023-03-20T08:30:32;101795.97;;;8.80;100.00
62708;BME280;48769;51.624;5.886;2023-03-20T08:32:57;101793.50;;;8.74;100.00
62708;BME280;48769;51.624;5.886;2023-03-20T08:35:24;101802.09;;;8.80;100.00
62708;BME280;48769;51.624;5.886;2023-03-20T08:37:49;101788.97;;;8.79;100.00
62708;BME280;48769;51.624;5.886;2023-03-20T08:40:15;101798.53;;;8.83;100.00
62708;BME280;48769;51.624;5.886;2023-03-20T08:42:43;101798.59;;;8.80;100.00
62708;BME280;48769;51.624;5.886;2023-03-20T08:45:09;101796.81;;;8.80;100.00
62708;BME280;48769;51.624;5.886;2023-03-20T08:47:35;101795.94;;;8.81;100.00
62708;BME280;48769;51.624;5.886;2023-03-20T08:50:01;101798.44;;;8.86;100.00
62708;BME280;48769;51.624;5.886;2023-03-20T08:52:29;101800.97;;;8.89;100.00
62708;BME280;48769;51.624;5.886;2023-03-20T08:54:55;101800.81;;;8.95;100.00
62708;BME280;48769;51.624;5.886;2023-03-20T08:57:20;101792.63;;;9.04;100.00
62708;BME280;48769;51.624;5.886;2023-03-20T08:59:45;101795.97;;;9.09;100.00
62708;BME280;48769;51.624;5.886;2023-03-20T09:02:11;101781.56;;;9.21;100.00
62708;BME280;48769;51.624;5.886;2023-03-20T09:04:36;101794.56;;;9.27;100.00
62708;BME280;48769;51.624;5.886;2023-03-20T09:07:02;101783.72;;;9.36;100.00
62708;BME280;48769;51.624;5.886;2023-03-20T09:09:28;101779.41;;;9.34;100.00
62708;BME280;48769;51.624;5.886;2023-03-20T09:11:57;101783.25;;;9.24;100.00
62708;BME280;48769;51.624;5.886;2023-03-20T09:14:24;101790.97;;;9.30;100.00
62708;BME280;48769;51.624;5.886;2023-03-20T09:16:50;101788.16;;;9.36;100.00
62708;BME280;48769;51.624;5.886;2023-03-20T09:19:17;101783.94;;;9.29;100.00
62708;BME280;48769;51.624;5.886;2023-03-20T09:21:43;101787.19;;;9.10;100.00
62708;BME280;48769;51.624;5.886;2023-03-20T09:24:08;101789.56;;;9.18;100.00
62708;BME280;48769;51.624;5.886;2023-03-20T09:26:33;101791.63;;;9.08;100.00
62708;BME280;48769;51.624;5.886;2023-03-20T09:28:59;101790.59;;;9.12;100.00
62708;BME280;48769;51.624;5.886;2023-03-20T09:31:24;101786.19;;;9.13;100.00
62708;BME280;48769;51.624;5.886;2023-03-20T09:33:50;101793.41;;;9.08;100.00
62708;BME280;48769;51.624;5.886;2023-03-20T09:36:15;101789.94;;;9.06;100.00
62708;BME280;48769;51.624;5.886;2023-03-20T09:38:41;101793.44;;;9.06;100.00
62708;BME280;48769;51.624;5.886;2023-03-20T09:41:15;101795.19;;;9.07;100.00
62708;BME280;48769;51.624;5.886;2023-03-20T09:46:42;101787.94;;;9.14;100.00
62708;BME280;48769;51.624;5.886;2023-03-20T09:52:04;101797.66;;;9.12;100.00
62708;BME280;48769;51.624;5.886;2023-03-20T09:54:38;101805.75;;;9.06;100.00
62708;BME280;48769;51.624;5.886;2023-03-20T09:57:05;101802.13;;;9.10;100.00
62708;BME280;48769;51.624;5.886;2023-03-20T09:59:34;101810.25;;;9.02;100.00
62708;BME280;48769;51.624;5.886;2023-03-20T10:02:24;101814.75;;;8.99;100.00
62708;BME280;48769;51.624;5.886;2023-03-20T10:04:54;101814.56;;;9.05;100.00
62708;BME280;48769;51.624;5.886;2023-03-20T10:07:20;101820.69;;;9.05;100.00
62708;BME280;48769;51.624;5.886;2023-03-20T10:09:46;101825.66;;;9.16;100.00
62708;BME280;48769;51.624;5.886;2023-03-20T10:15:13;101820.44;;;9.15;100.00
62708;BME280;48769;51.624;5.886;2023-03-20T10:20:24;101818.25;;;8.99;100.00
62708;BME280;48769;51.624;5.886;2023-03-20T10:23:19;101815.84;;;8.92;100.00
62708;BME280;48769;51.624;5.886;2023-03-20T10:25:46;101814.25;;;8.86;100.00
62708;BME280;48769;51.624;5.886;2023-03-20T10:28:27;101811.28;;;8.97;100.00
62708;BME280;48769;51.624;5.886;2023-03-20T10:41:59;101793.00;;;9.76;100.00
62708;BME280;48769;51.624;5.886;2023-03-20T10:44:32;101792.28;;;9.71;100.00
62708;BME280;48769;51.624;5.886;2023-03-20T10:47:00;101788.88;;;9.68;100.00
62708;BME280;48769;51.624;5.886;2023-03-20T10:50:13;101796.56;;;9.75;100.00
62708;BME280;48769;51.624;5.886;2023-03-20T10:52:31;101791.00;;;10.10;100.00
62708;BME280;48769;51.624;5.886;2023-03-20T10:55:03;101783.50;;;10.22;100.00
62708;BME280;48769;51.624;5.886;2023-03-20T10:57:32;101776.66;;;10.17;100.00
62708;BME280;48769;51.624;5.886;2023-03-20T10:59:59;101778.63;;;10.12;100.00
62708;BME280;48769;51.624;5.886;2023-03-20T11:02:28;101784.09;;;10.05;100.00
62708;BME280;48769;51.624;5.886;2023-03-20T11:04:54;101784.72;;;9.87;100.00
62708;BME280;48769;51.624;5.886;2023-03-20T11:07:27;101787.41;;;9.86;100.00
62708;BME280;48769;51.624;5.886;2023-03-20T11:12:33;101795.13;;;9.65;100.00
62708;BME280;48769;51.624;5.886;2023-03-20T11:15:23;101795.25;;;9.62;100.00
62708;BME280;48769;51.624;5.886;2023-03-20T11:17:57;101790.19;;;9.54;100.00
62708;BME280;48769;51.624;5.886;2023-03-20T11:20:31;101788.88;;;9.68;100.00
62708;BME280;48769;51.624;5.886;2023-03-20T11:23:00;101794.06;;;9.71;100.00
62708;BME280;48769;51.624;5.886;2023-03-20T11:25:36;101790.72;;;9.66;100.00
62708;BME280;48769;51.624;5.886;2023-03-20T11:30:44;101785.63;;;9.59;100.00
62708;BME280;48769;51.624;5.886;2023-03-20T11:33:10;101772.75;;;9.77;100.00
62708;BME280;48769;51.624;5.886;2023-03-20T11:35:36;101766.56;;;10.04;100.00
62708;BME280;48769;51.624;5.886;2023-03-20T11:38:31;101764.28;;;10.19;100.00
62708;BME280;48769;51.624;5.886;2023-03-20T11:40:57;101763.31;;;10.21;100.00
62708;BME280;48769;51.624;5.886;2023-03-20T11:43:24;101761.75;;;10.16;100.00
62708;BME280;48769;51.624;5.886;2023-03-20T11:45:56;101761.34;;;10.28;100.00
62708;BME280;48769;51.624;5.886;2023-03-20T11:48:24;101768.53;;;10.23;100.00
62708;BME280;48769;51.624;5.886;2023-03-20T11:51:08;101754.13;;;10.06;100.00
62708;BME280;48769;51.624;5.886;2023-03-20T11:53:39;101764.28;;;10.19;100.00
62708;BME280;48769;51.624;5.886;2023-03-20T11:58:32;101762.66;;;10.15;100.00
62708;BME280;48769;51.624;5.886;2023-03-20T12:01:00;101758.25;;;10.15;100.00
62708;BME280;48769;51.624;5.886;2023-03-20T12:03:40;101741.34;;;10.21;100.00
62708;BME280;48769;51.624;5.886;2023-03-20T12:06:12;101753.50;;;10.25;100.00
62708;BME280;48769;51.624;5.886;2023-03-20T12:08:40;101744.66;;;10.27;100.00
62708;BME280;48769;51.624;5.886;2023-03-20T12:11:18;101741.94;;;10.29;100.00
62708;BME280;48769;51.624;5.886;2023-03-20T12:13:47;101740.34;;;10.48;100.00
62708;BME280;48769;51.624;5.886;2023-03-20T12:16:17;101737.81;;;10.45;100.00
62708;BME280;48769;51.624;5.886;2023-03-20T12:18:54;101737.03;;;10.43;100.00
62708;BME280;48769;51.624;5.886;2023-03-20T12:24:40;101734.53;;;10.62;100.00
62708;BME280;48769;51.624;5.886;2023-03-20T12:27:34;101722.78;;;10.71;100.00
62708;BME280;48769;51.624;5.886;2023-03-20T12:30:05;101735.28;;;10.66;100.00
62708;BME280;48769;51.624;5.886;2023-03-20T12:32:43;101733.41;;;10.69;100.00
62708;BME280;48769;51.624;5.886;2023-03-20T12:35:31;101717.97;;;10.82;100.00
62708;BME280;48769;51.624;5.886;2023-03-20T12:37:58;101719.06;;;10.76;100.00
62708;BME280;48769;51.624;5.886;2023-03-20T12:40:42;101724.97;;;10.83;100.00
62708;BME280;48769;51.624;5.886;2023-03-20T12:43:20;101708.00;;;10.89;100.00
62708;BME280;48769;51.624;5.886;2023-03-20T12:45:54;101710.41;;;10.71;100.00
62708;BME280;48769;51.624;5.886;2023-03-20T12:48:42;101713.69;;;10.78;100.00
62708;BME280;48769;51.624;5.886;2023-03-20T12:51:37;101722.13;;;10.88;100.00
62708;BME280;48769;51.624;5.886;2023-03-20T12:56:53;101708.72;;;10.70;100.00
62708;BME280;48769;51.624;5.886;2023-03-20T13:02:28;101707.75;;;10.73;100.00
62708;BME280;48769;51.624;5.886;2023-03-20T13:10:18;101705.75;;;10.78;100.00
62708;BME280;48769;51.624;5.886;2023-03-20T13:15:40;101683.59;;;10.82;100.00
62708;BME280;48769;51.624;5.886;2023-03-20T13:18:27;101687.34;;;10.76;100.00
62708;BME280;48769;51.624;5.886;2023-03-20T13:20:59;101690.03;;;10.75;100.00
62708;BME280;48769;51.624;5.886;2023-03-20T13:23:33;101682.16;;;10.73;100.00
62708;BME280;48769;51.624;5.886;2023-03-20T13:27:07;101690.72;;;10.80;100.00
62708;BME280;48769;51.624;5.886;2023-03-20T13:32:27;101687.03;;;10.84;100.00
62708;BME280;48769;51.624;5.886;2023-03-20T13:37:47;101681.19;;;10.76;100.00
62708;BME280;48769;51.624;5.886;2023-03-20T13:40:29;101685.91;;;10.68;100.00
62708;BME280;48769;51.624;5.886;2023-03-20T13:42:59;101677.22;;;10.64;100.00
62708;BME280;48769;51.624;5.886;2023-03-20T13:45:38;101673.63;;;10.67;100.00
62708;BME280;48769;51.624;5.886;2023-03-20T13:48:38;101671.72;;;10.70;100.00
62708;BME280;48769;51.624;5.886;2023-03-20T13:56:52;101660.06;;;10.76;100.00
62708;BME280;48769;51.624;5.886;2023-03-20T13:59:49;101658.31;;;10.75;100.00
62708;BME280;48769;51.624;5.886;2023-03-20T14:02:37;101641.47;;;10.77;100.00
62708;BME280;48769;51.624;5.886;2023-03-20T14:05:21;101639.81;;;10.75;100.00
62708;BME280;48769;51.624;5.886;2023-03-20T14:07:49;101638.66;;;10.82;100.00
62708;BME280;48769;51.624;5.886;2023-03-20T14:12:48;101657.16;;;10.82;100.00
62708;BME280;48769;51.624;5.886;2023-03-20T14:15:14;101656.41;;;10.79;100.00
62708;BME280;48769;51.624;5.886;2023-03-20T14:17:42;101665.06;;;10.60;100.00
62708;BME280;48769;51.624;5.886;2023-03-20T14:20:12;101653.75;;;10.57;100.00
62708;BME280;48769;51.624;5.886;2023-03-20T14:22:44;101655.03;;;10.46;100.00
62708;BME280;48769;51.624;5.886;2023-03-20T14:25:17;101647.69;;;10.31;100.00
62708;BME280;48769;51.624;5.886;2023-03-20T14:27:53;101643.88;;;10.38;100.00
62708;BME280;48769;51.624;5.886;2023-03-20T14:38:27;101641.34;;;10.35;100.00
62708;BME280;48769;51.624;5.886;2023-03-20T14:41:04;101640.78;;;10.27;100.00